Time;durP1;ratioP1;P1;durP2;ratioP2;P2;SDS_P1;SDS_P2;PMS_P1;PMS_P2;Temp;Humidity;BMP_temperature;BMP_pressure;BME280_temperature;BME280_humidity;BME280_pressure;Samples;Min_cycle;Max_cycle;Signal;HPM_P1;HPM_P2
2023/01/31 00:02:51;;;;;;;28.05;10.27;;;;;;;-0.17;100.00;102313.47;10483610;28;20133;-75
2023/01/31 00:07:53;;;;;;;24.38;9.38;;;;;;;-0.30;100.00;102314.66;10489329;28;20036;-75
2023/01/31 00:12:53;;;;;;;23.97;9.10;;;;;;;-0.45;100.00;102305.19;10491940;28;20491;-75
2023/01/31 00:17:54;;;;;;;27.75;7.93;;;;;;;-0.57;100.00;102326.91;10491706;28;20043;-75
2023/01/31 00:22:54;;;;;;;24.48;8.20;;;;;;;-0.64;100.00;102325.31;10496853;28;20045;-76
2023/01/31 00:27:55;;;;;;;31.33;10.45;;;;;;;-0.48;100.00;102325.41;10484396;28;20147;-75
2023/01/31 00:32:55;;;;;;;20.00;8.60;;;;;;;-0.58;100.00;102326.00;10486294;28;20182;-76
2023/01/31 00:37:56;;;;;;;23.77;8.35;;;;;;;-0.55;100.00;102321.22;10484770;28;20125;-75
2023/01/31 00:42:56;;;;;;;24.52;8.48;;;;;;;-0.52;100.00;102334.44;10487949;28;20035;-76
2023/01/31 00:47:57;;;;;;;23.65;8.93;;;;;;;-0.19;100.00;102339.06;10480510;28;20670;-75
2023/01/31 00:52:57;;;;;;;23.45;9.73;;;;;;;-0.05;100.00;102332.00;10483042;28;20049;-75
2023/01/31 00:57:58;;;;;;;27.42;11.30;;;;;;;0.14;100.00;102343.66;10458927;28;20529;-75
2023/01/31 01:02:58;;;;;;;32.90;10.63;;;;;;;0.33;100.00;102339.63;10441712;28;20052;-75
2023/01/31 01:07:59;;;;;;;23.73;8.98;;;;;;;0.35;100.00;102336.50;10476569;28;20499;-75
2023/01/31 01:12:59;;;;;;;39.45;12.15;;;;;;;0.21;100.00;102321.16;10480893;28;20080;-75
2023/01/31 01:18:00;;;;;;;32.45;12.30;;;;;;;0.30;100.00;102329.91;10480662;28;20044;-75
2023/01/31 01:23:00;;;;;;;31.08;15.02;;;;;;;0.42;100.00;102321.00;10481739;28;20052;-75
2023/01/31 01:28:01;;;;;;;34.47;13.35;;;;;;;0.35;100.00;102313.31;10478201;27;20538;-75
2023/01/31 01:33:02;;;;;;;35.92;15.35;;;;;;;0.36;100.00;102301.34;10485492;28;20045;-75
2023/01/31 01:38:07;;;;;;;39.30;14.75;;;;;;;0.32;100.00;102306.91;10481480;28;20095;-75
2023/01/31 01:43:10;;;;;;;32.63;13.15;;;;;;;0.14;100.00;102283.50;10484670;28;20099;-76
2023/01/31 01:48:11;;;;;;;28.10;14.10;;;;;;;0.07;100.00;102278.41;10505702;28;20141;-76
2023/01/31 01:53:20;;;;;;;36.83;15.13;;;;;;;0.01;100.00;102277.69;10403678;28;20103;-76
2023/01/31 01:58:31;;;;;;;42.33;14.85;;;;;;;0.08;100.00;102276.00;10463640;28;20049;-76
2023/01/31 02:03:31;;;;;;;34.20;14.18;;;;;;;0.16;100.00;102278.53;10481334;28;20048;-76
2023/01/31 02:08:33;;;;;;;27.00;13.50;;;;;;;0.13;100.00;102285.16;10481566;28;20113;-78
2023/01/31 02:13:33;;;;;;;40.78;14.93;;;;;;;0.05;100.00;102285.03;10473971;28;20036;-75
2023/01/31 02:18:34;;;;;;;35.13;13.05;;;;;;;-0.17;100.00;102278.38;10496494;28;20036;-75
2023/01/31 02:23:53;;;;;;;19.67;11.38;;;;;;;-0.08;100.00;102285.31;10457528;28;20124;-76
2023/01/31 02:29:12;;;;;;;26.08;12.40;;;;;;;-0.02;100.00;102289.47;10461585;28;20182;-76
2023/01/31 02:34:27;;;;;;;29.85;10.85;;;;;;;-0.21;100.00;102298.44;10428193;28;20768;-76
2023/01/31 02:39:52;;;;;;;26.88;12.82;;;;;;;-0.34;100.00;102309.91;10439245;28;20142;-75
2023/01/31 02:45:08;;;;;;;35.50;13.75;;;;;;;-0.34;100.00;102302.19;10478057;28;20044;-75
2023/01/31 02:50:16;;;;;;;39.42;15.57;;;;;;;-0.08;100.00;102305.91;10479036;28;20040;-76
2023/01/31 03:00:44;;;;;;;22.00;13.07;;;;;;;-0.23;100.00;102312.78;10476999;28;20044;-75
2023/01/31 03:06:06;;;;;;;29.93;12.00;;;;;;;-0.33;100.00;102308.25;10479336;28;20439;-76
2023/01/31 03:11:07;;;;;;;29.50;11.18;;;;;;;-0.49;100.00;102290.13;10477108;28;20303;-75
2023/01/31 03:21:52;;;;;;;43.53;15.85;;;;;;;-0.32;100.00;102263.78;10467144;28;20036;-76
2023/01/31 03:26:53;;;;;;;28.33;13.43;;;;;;;-0.12;100.00;102270.28;10480879;28;20032;-76
2023/01/31 03:31:58;;;;;;;20.63;8.67;;;;;;;0.01;100.00;102277.69;10483492;28;20047;-75
2023/01/31 03:37:22;;;;;;;28.00;14.10;;;;;;;0.06;100.00;102262.03;10423415;28;20392;-76
2023/01/31 03:42:35;;;;;;;23.40;13.75;;;;;;;0.18;100.00;102256.44;10447289;28;20059;-75
2023/01/31 03:47:41;;;;;;;37.28;16.13;;;;;;;0.21;100.00;102257.69;10489210;28;20498;-76
2023/01/31 03:52:54;;;;;;;32.10;15.02;;;;;;;0.21;100.00;102255.09;10469989;28;20741;-75
2023/01/31 03:57:54;;;;;;;37.85;15.25;;;;;;;0.32;100.00;102239.94;10440397;28;20041;-76
2023/01/31 04:02:59;;;;;;;36.80;15.68;;;;;;;0.35;100.00;102251.50;10441666;28;20128;-77
2023/01/31 04:08:00;;;;;;;33.53;16.02;;;;;;;0.26;100.00;102230.78;10481668;28;20064;-76
2023/01/31 04:13:01;;;;;;;30.38;15.25;;;;;;;0.09;100.00;102225.41;10483078;28;20505;-75
2023/01/31 04:18:01;;;;;;;44.88;16.02;;;;;;;0.19;100.00;102222.22;10485922;28;20488;-76
2023/01/31 04:23:02;;;;;;;41.58;18.85;;;;;;;0.26;100.00;102235.94;10501638;28;20043;-76
2023/01/31 04:28:03;;;;;;;38.10;18.25;;;;;;;0.30;100.00;102244.94;10475147;28;20036;-76
2023/01/31 04:33:03;;;;;;;36.63;19.10;;;;;;;0.40;100.00;102234.91;10476233;28;20430;-76
2023/01/31 04:38:04;;;;;;;46.90;17.75;;;;;;;0.57;100.00;102238.41;10478241;28;20048;-76
2023/01/31 04:43:04;;;;;;;52.42;15.60;;;;;;;0.68;100.00;102235.34;10506692;28;20178;-75
2023/01/31 04:48:05;;;;;;;38.40;16.98;;;;;;;0.81;100.00;102228.97;10474450;28;20052;-75
2023/01/31 04:53:07;;;;;;;38.63;17.92;;;;;;;0.76;100.00;102219.81;10476778;28;20052;-75
2023/01/31 04:58:08;;;;;;;48.95;18.63;;;;;;;0.75;100.00;102215.41;10477173;28;20400;-75
2023/01/31 05:03:08;;;;;;;46.30;16.95;;;;;;;0.69;100.00;102207.91;10475912;28;20123;-75
2023/01/31 05:08:09;;;;;;;44.15;17.58;;;;;;;0.69;100.00;102202.75;10474223;28;20613;-75
2023/01/31 05:13:09;;;;;;;39.92;19.98;;;;;;;0.76;100.00;102210.41;10438267;28;20112;-75
2023/01/31 05:18:10;;;;;;;39.03;16.35;;;;;;;0.67;100.00;102205.19;10458504;28;20040;-75
2023/01/31 05:23:12;;;;;;;28.27;16.15;;;;;;;0.52;100.00;102188.94;10474857;28;20552;-76
2023/01/31 05:28:12;;;;;;;40.10;18.45;;;;;;;0.45;100.00;102181.28;10474710;28;20124;-75
2023/01/31 05:33:13;;;;;;;36.42;16.10;;;;;;;0.48;100.00;102175.59;10475263;28;20051;-75
2023/01/31 05:38:14;;;;;;;32.97;19.60;;;;;;;0.31;100.00;102186.59;10473950;28;20510;-75
2023/01/31 05:43:14;;;;;;;39.97;17.75;;;;;;;0.38;100.00;102181.38;10476698;28;20497;-74
2023/01/31 05:48:15;;;;;;;37.35;18.88;;;;;;;0.45;100.00;102170.09;10470986;28;20139;-74
2023/01/31 05:53:15;;;;;;;46.70;18.05;;;;;;;0.65;100.00;102161.94;10474132;28;20032;-75
2023/01/31 05:58:16;;;;;;;30.35;17.40;;;;;;;0.67;100.00;102161.38;10470965;28;20135;-75
2023/01/31 06:03:16;;;;;;;39.03;17.20;;;;;;;0.68;100.00;102160.63;10474085;28;20127;-76
2023/01/31 06:08:17;;;;;;;44.55;17.52;;;;;;;0.58;100.00;102163.84;10487205;28;20437;-75
2023/01/31 06:13:17;;;;;;;34.17;17.42;;;;;;;0.61;100.00;102177.81;10473694;28;20132;-76
2023/01/31 06:18:18;;;;;;;57.65;29.85;;;;;;;0.66;100.00;102159.53;10469617;28;20471;-76
2023/01/31 06:23:18;;;;;;;30.17;15.93;;;;;;;0.66;100.00;102151.81;10473661;28;20043;-76
2023/01/31 06:28:19;;;;;;;33.85;15.35;;;;;;;0.67;100.00;102169.09;10468753;28;21148;-76
2023/01/31 06:33:19;;;;;;;34.30;14.05;;;;;;;0.72;100.00;102172.16;10474353;28;20041;-76
2023/01/31 06:38:21;;;;;;;38.33;13.55;;;;;;;1.05;100.00;102170.47;10437693;28;20091;-74
2023/01/31 06:43:22;;;;;;;38.42;15.48;;;;;;;1.19;100.00;102179.69;10462802;27;20130;-75
2023/01/31 06:48:22;;;;;;;40.22;14.00;;;;;;;1.29;100.00;102164.44;10470397;28;20068;-76
2023/01/31 06:53:23;;;;;;;26.73;12.75;;;;;;;1.44;100.00;102173.78;10469834;28;20463;-76
2023/01/31 06:58:23;;;;;;;32.88;14.40;;;;;;;1.53;100.00;102162.59;10478802;28;20054;-75
2023/01/31 07:03:24;;;;;;;27.13;11.73;;;;;;;1.60;100.00;102170.22;10483652;28;20125;-76
2023/01/31 07:08:24;;;;;;;22.08;13.25;;;;;;;1.75;100.00;102165.78;10473508;28;20488;-76
2023/01/31 07:13:25;;;;;;;30.60;13.65;;;;;;;1.80;100.00;102148.16;10481297;28;20123;-76
2023/01/31 07:18:26;;;;;;;24.48;10.00;;;;;;;1.84;100.00;102145.16;10483063;28;20493;-76
2023/01/31 07:23:30;;;;;;;24.20;10.55;;;;;;;1.91;100.00;102132.13;10486320;28;20048;-74
2023/01/31 07:28:30;;;;;;;18.40;10.02;;;;;;;1.94;100.00;102124.69;10501200;28;20037;-75
2023/01/31 07:33:32;;;;;;;21.15;10.77;;;;;;;2.03;100.00;102120.47;10481757;28;20790;-75
2023/01/31 07:38:33;;;;;;;21.33;8.82;;;;;;;2.11;100.00;102131.59;10484667;28;20487;-75
2023/01/31 07:43:33;;;;;;;31.50;11.40;;;;;;;2.17;100.00;102133.88;10476258;28;20071;-75
2023/01/31 07:48:34;;;;;;;49.85;20.35;;;;;;;2.32;100.00;102139.69;10489958;28;20381;-74
2023/01/31 07:53:40;;;;;;;23.58;9.82;;;;;;;2.48;100.00;102113.72;10484268;28;20119;-75
2023/01/31 07:58:44;;;;;;;30.35;11.30;;;;;;;2.48;100.00;102111.13;10484708;28;20553;-76
2023/01/31 08:03:45;;;;;;;23.67;8.02;;;;;;;2.53;100.00;102106.44;10486388;28;20056;-75
2023/01/31 08:08:46;;;;;;;28.25;10.48;;;;;;;2.56;100.00;102101.56;10462909;28;20037;-75
2023/01/31 08:13:46;;;;;;;21.83;11.80;;;;;;;2.70;100.00;102095.16;10473865;28;20041;-75
2023/01/31 08:18:47;;;;;;;30.60;9.38;;;;;;;2.75;100.00;102099.13;10477688;28;20096;-76
2023/01/31 08:23:48;;;;;;;33.08;13.10;;;;;;;2.76;100.00;102095.78;10460231;28;20048;-75
2023/01/31 08:28:49;;;;;;;33.50;9.27;;;;;;;2.89;100.00;102083.28;10475570;28;20768;-76
2023/01/31 08:33:51;;;;;;;21.60;8.17;;;;;;;2.99;100.00;102069.59;10449888;28;20060;-78
2023/01/31 08:38:52;;;;;;;;;;;;;;;3.10;100.00;102070.63;10459791;28;20263;-76
2023/01/31 08:43:54;;;;;;;20.00;8.75;;;;;;;3.16;100.00;102070.34;10436207;28;20365;-76
2023/01/31 08:48:55;;;;;;;18.88;8.13;;;;;;;3.12;100.00;102058.75;10438017;28;20037;-75
2023/01/31 08:53:55;;;;;;;17.42;7.88;;;;;;;3.15;100.00;102050.41;10439434;28;20041;-75
2023/01/31 08:58:56;;;;;;;26.70;9.15;;;;;;;3.27;100.00;102041.22;10419516;28;20121;-74
2023/01/31 09:03:56;;;;;;;25.23;9.38;;;;;;;3.52;100.00;102046.16;10444995;28;20644;-76
2023/01/31 09:08:57;;;;;;;17.05;7.35;;;;;;;3.65;100.00;102038.78;10440810;28;20064;-76
2023/01/31 09:13:58;;;;;;;17.88;8.52;;;;;;;3.81;100.00;102038.53;10435762;28;20045;-76
2023/01/31 09:18:58;;;;;;;22.17;8.35;;;;;;;3.88;100.00;102046.88;10436706;28;20128;-76
2023/01/31 09:24:01;;;;;;;15.27;5.45;;;;;;;3.75;100.00;102039.66;10430020;28;20049;-75
2023/01/31 09:29:01;;;;;;;22.67;9.05;;;;;;;3.78;100.00;102035.66;10420400;28;20981;-75
2023/01/31 09:34:02;;;;;;;27.00;11.07;;;;;;;3.69;100.00;102013.19;10438740;28;20051;-74
2023/01/31 09:39:02;;;;;;;22.95;7.10;;;;;;;3.71;100.00;102020.31;10440385;28;20057;-75
2023/01/31 09:44:09;;;;;;;17.80;5.80;;;;;;;3.81;100.00;102022.09;10440032;28;20041;-74
2023/01/31 09:49:15;;;;;;;17.33;7.63;;;;;;;3.91;100.00;102013.50;10464208;28;20039;-75
2023/01/31 09:54:34;;;;;;;16.30;7.32;;;;;;;4.19;100.00;102011.78;10479514;28;20032;-75
2023/01/31 09:59:56;;;;;;;18.95;8.98;;;;;;;4.62;100.00;102001.81;10483351;28;20039;-75
2023/01/31 10:05:29;;;;;;;17.38;7.25;;;;;;;4.91;100.00;101961.09;10483330;28;20052;-76
2023/01/31 10:10:57;;;;;;;21.35;7.82;;;;;;;5.56;100.00;101971.88;10451140;28;20048;-76
2023/01/31 10:16:23;;;;;;;14.98;6.07;;;;;;;6.04;100.00;101956.84;10439226;28;20041;-75
2023/01/31 10:21:44;;;;;;;24.92;6.47;;;;;;;5.72;100.00;101953.28;10411276;28;20067;-76
2023/01/31 10:26:44;;;;;;;21.35;8.68;;;;;;;5.85;100.00;101940.56;10441361;28;20387;-75
2023/01/31 10:31:57;;;;;;;13.85;6.50;;;;;;;6.20;100.00;101933.94;10447731;28;20041;-76
2023/01/31 10:37:09;;;;;;;14.40;6.97;;;;;;;6.34;100.00;101935.06;10423430;28;20504;-75
2023/01/31 10:42:31;;;;;;;21.85;8.82;;;;;;;6.77;100.00;101919.44;10478909;28;20466;-75
2023/01/31 10:47:46;;;;;;;25.33;8.77;;;;;;;8.15;100.00;101901.25;10474428;28;20040;-76
2023/01/31 10:53:08;;;;;;;18.27;5.72;;;;;;;7.78;100.00;101902.03;10425661;28;20474;-76
2023/01/31 10:58:16;;;;;;;14.48;6.18;;;;;;;6.54;100.00;101953.97;10439483;28;20029;-76
2023/01/31 11:03:17;;;;;;;17.67;7.03;;;;;;;5.96;100.00;101967.47;10442450;28;20481;-76
2023/01/31 11:08:28;;;;;;;21.15;6.50;;;;;;;5.74;100.00;101959.53;10445493;28;20049;-76
2023/01/31 11:13:29;;;;;;;17.52;8.13;;;;;;;5.65;100.00;101956.16;10480049;28;20041;-75
2023/01/31 11:18:32;;;;;;;29.40;9.20;;;;;;;5.82;100.00;101936.81;10445493;28;20037;-76
2023/01/31 11:23:33;;;;;;;18.08;7.78;;;;;;;5.86;100.00;101929.38;10463486;28;20037;-76
2023/01/31 11:28:39;;;;;;;19.00;8.73;;;;;;;5.79;100.00;101927.06;10478811;28;20484;-76
2023/01/31 11:34:02;;;;;;;21.15;8.35;;;;;;;5.55;100.00;101912.94;10473149;28;20473;-75
2023/01/31 11:39:10;;;;;;;;;;;;;;;5.38;100.00;101915.00;10439277;28;20045;-76
2023/01/31 11:44:14;;;;;;;25.00;10.25;;;;;;;5.36;100.00;101902.66;10429334;28;19936;-75
2023/01/31 11:49:31;;;;;;;17.67;9.30;;;;;;;5.32;100.00;101903.16;10447219;28;20037;-76
2023/01/31 11:54:32;;;;;;;16.33;9.02;;;;;;;5.18;100.00;101905.47;10476330;28;20058;-75
2023/01/31 11:59:33;;;;;;;16.58;8.75;;;;;;;5.19;100.00;101914.19;10444824;28;20037;-78
2023/01/31 12:04:34;;;;;;;21.98;8.88;;;;;;;5.11;100.00;101900.53;10479192;28;20441;-77
2023/01/31 12:09:42;;;;;;;21.40;9.32;;;;;;;5.11;100.00;101896.28;10465655;28;20110;-75
2023/01/31 12:14:43;;;;;;;17.30;8.00;;;;;;;4.99;100.00;101905.59;10474455;28;20123;-76
2023/01/31 12:20:01;;;;;;;21.38;8.73;;;;;;;5.05;100.00;101900.94;10481569;28;20058;-76
2023/01/31 12:25:11;;;;;;;21.08;8.93;;;;;;;5.15;100.00;101910.41;10481044;28;20045;-76
2023/01/31 12:30:44;;;;;;;20.08;7.88;;;;;;;5.24;100.00;101885.25;10486698;28;20047;-76
2023/01/31 12:35:51;;;;;;;;;;;;;;;5.19;100.00;101870.97;10454399;28;20903;-75
2023/01/31 12:41:38;;;;;;;19.40;8.88;;;;;;;5.18;100.00;101866.56;10440988;28;19928;-75
2023/01/31 12:46:50;;;;;;;16.38;9.07;;;;;;;5.25;100.00;101860.22;10425327;28;20036;-75
2023/01/31 12:51:59;;;;;;;;;;;;;;;5.28;100.00;101858.78;10461663;28;20045;-75
2023/01/31 12:57:12;;;;;;;18.85;10.32;;;;;;;5.15;100.00;101871.47;10442028;28;20019;-75
2023/01/31 13:02:26;;;;;;;18.00;10.05;;;;;;;4.99;100.00;101877.94;10442891;28;20440;-75
2023/01/31 13:07:28;;;;;;;21.20;9.60;;;;;;;4.82;100.00;101892.06;10475858;28;20062;-75
2023/01/31 13:12:30;;;;;;;;;;;;;;;4.70;100.00;101916.94;10479909;28;20063;-74
2023/01/31 13:17:31;;;;;;;26.90;9.88;;;;;;;4.64;100.00;101926.75;10495445;28;19921;-75
2023/01/31 13:22:40;;;;;;;23.03;13.17;;;;;;;4.60;100.00;101925.56;10477128;28;20404;-75
2023/01/31 13:27:43;;;;;;;31.70;13.88;;;;;;;4.60;100.00;101915.19;10466357;28;20278;-75
2023/01/31 13:32:50;;;;;;;21.25;12.50;;;;;;;4.68;100.00;101909.00;10464205;28;20056;-75
2023/01/31 13:37:54;;;;;;;27.95;14.27;;;;;;;4.66;100.00;101902.75;10481886;28;20044;-76
2023/01/31 13:42:56;;;;;;;33.38;15.95;;;;;;;4.75;100.00;101902.69;10462754;28;20056;-74
2023/01/31 13:48:18;;;;;;;28.98;13.55;;;;;;;4.78;100.00;101896.84;10477280;28;20040;-75
2023/01/31 13:53:24;;;;;;;38.03;14.82;;;;;;;4.76;100.00;101901.91;10466983;28;20075;-74
2023/01/31 13:58:27;;;;;;;26.60;14.65;;;;;;;4.75;100.00;101910.47;10482839;28;20043;-74
2023/01/31 14:03:28;;;;;;;31.67;12.63;;;;;;;4.68;100.00;101883.06;10455386;28;20029;-75
2023/01/31 14:08:38;;;;;;;34.90;15.23;;;;;;;4.67;100.00;101904.56;10481271;28;20029;-74
2023/01/31 14:13:40;;;;;;;29.58;14.98;;;;;;;4.66;100.00;101896.69;10442779;28;20049;-75
2023/01/31 14:18:42;;;;;;;30.30;15.52;;;;;;;4.66;100.00;101894.97;10440745;28;20048;-75
2023/01/31 14:23:45;;;;;;;26.75;12.63;;;;;;;4.69;100.00;101889.16;10432006;28;20111;-74
2023/01/31 14:28:46;;;;;;;26.00;13.73;;;;;;;4.75;100.00;101883.59;10477767;28;20044;-74
2023/01/31 14:33:47;;;;;;;24.20;15.90;;;;;;;4.84;100.00;101869.75;10445795;28;20065;-75
2023/01/31 14:39:06;;;;;;;23.13;15.75;;;;;;;4.83;100.00;101888.69;10437154;28;20699;-75
2023/01/31 14:44:32;;;;;;;19.17;11.60;;;;;;;4.89;100.00;101896.09;10450705;28;20139;-74
2023/01/31 14:49:51;;;;;;;26.70;14.85;;;;;;;4.96;100.00;101897.53;10478232;28;20064;-75
2023/01/31 14:55:07;;;;;;;20.60;11.85;;;;;;;5.03;100.00;101899.91;10480154;28;20039;-75
2023/01/31 15:00:24;;;;;;;32.17;12.77;;;;;;;5.12;100.00;101912.75;10478990;28;20036;-75
2023/01/31 15:05:31;;;;;;;31.83;15.38;;;;;;;5.14;100.00;101909.53;10443383;28;20565;-75
2023/01/31 15:11:03;;;;;;;23.08;14.40;;;;;;;5.19;100.00;101925.47;10477708;28;20055;-75
2023/01/31 15:16:23;;;;;;;16.60;11.43;;;;;;;5.25;100.00;101943.28;10476424;28;20118;-76
2023/01/31 15:21:29;;;;;;;20.35;13.02;;;;;;;5.26;100.00;101932.13;10479102;28;20392;-75
2023/01/31 15:26:31;;;;;;;24.77;14.38;;;;;;;5.28;100.00;101946.13;10440857;28;20041;-74
2023/01/31 15:31:42;;;;;;;19.33;13.82;;;;;;;5.34;100.00;101943.16;10420238;28;20045;-76
2023/01/31 15:37:04;;;;;;;23.75;12.93;;;;;;;5.34;100.00;101949.25;10435355;28;20450;-76
2023/01/31 15:42:23;;;;;;;14.50;9.57;;;;;;;5.38;100.00;101946.16;10445792;28;20045;-77
2023/01/31 15:47:23;;;;;;;22.80;14.35;;;;;;;5.41;100.00;101949.00;10448706;28;20041;-77
2023/01/31 15:52:24;;;;;;;17.05;11.95;;;;;;;5.45;100.00;101932.00;10445721;28;20566;-75
2023/01/31 15:57:38;;;;;;;26.45;14.32;;;;;;;5.47;100.00;101951.22;10447957;28;20057;-77
2023/01/31 16:02:38;;;;;;;29.40;15.05;;;;;;;5.44;100.00;101958.72;10435425;28;20048;-76
2023/01/31 16:07:39;;;;;;;23.00;13.32;;;;;;;5.40;100.00;101949.78;10446106;28;20048;-75
2023/01/31 16:12:41;;;;;;;25.77;14.70;;;;;;;5.39;100.00;101945.38;10444310;28;20075;-75
2023/01/31 16:17:43;;;;;;;29.90;18.35;;;;;;;5.40;100.00;101956.66;10425827;28;20374;-75
2023/01/31 16:22:54;;;;;;;25.00;15.35;;;;;;;5.31;100.00;101959.38;10446401;28;20512;-75
2023/01/31 16:28:01;;;;;;;27.58;16.98;;;;;;;5.28;100.00;101973.00;10443338;28;20043;-74
2023/01/31 16:33:01;;;;;;;30.10;16.17;;;;;;;5.30;100.00;101983.53;10445338;28;20045;-75
2023/01/31 16:38:06;;;;;;;24.38;16.33;;;;;;;5.28;100.00;101985.97;10430907;28;20049;-78
2023/01/31 16:43:23;;;;;;;27.63;16.45;;;;;;;5.28;100.00;101991.16;10517325;28;20036;-78
2023/01/31 16:48:25;;;;;;;29.27;17.85;;;;;;;5.32;100.00;101981.97;10473457;28;20090;-75
2023/01/31 16:53:26;;;;;;;34.63;21.65;;;;;;;5.22;100.00;101984.53;10483840;28;20051;-75
2023/01/31 16:58:42;;;;;;;29.17;16.67;;;;;;;5.19;100.00;101990.34;10465468;28;20039;-76
2023/01/31 17:03:43;;;;;;;26.65;17.77;;;;;;;5.22;100.00;102000.13;10485251;28;20135;-75
2023/01/31 17:08:44;;;;;;;34.20;19.23;;;;;;;5.24;100.00;102012.44;10460586;28;20472;-75
2023/01/31 17:13:45;;;;;;;35.42;20.35;;;;;;;5.27;100.00;102007.50;10475413;28;20496;-75
2023/01/31 17:18:45;;;;;;;39.58;20.50;;;;;;;5.24;100.00;102004.66;10484245;28;20040;-76
2023/01/31 17:23:46;;;;;;;38.08;19.45;;;;;;;5.33;100.00;101982.88;10487183;28;20055;-75
2023/01/31 17:28:48;;;;;;;31.02;18.92;;;;;;;5.22;100.00;101979.34;10468614;28;20039;-75
2023/01/31 17:33:49;;;;;;;21.65;14.25;;;;;;;5.06;100.00;101975.41;10481530;28;20032;-75
2023/01/31 17:38:50;;;;;;;29.80;16.00;;;;;;;4.97;100.00;101966.81;10470041;28;20040;-75
2023/01/31 17:43:51;;;;;;;31.00;17.08;;;;;;;4.81;100.00;101957.69;10481730;28;20090;-75
2023/01/31 17:48:51;;;;;;;26.13;15.57;;;;;;;4.63;100.00;101963.84;10483056;28;20056;-75
2023/01/31 17:53:54;;;;;;;31.63;16.38;;;;;;;4.62;100.00;101962.00;10491669;28;20119;-75
2023/01/31 17:58:55;;;;;;;33.15;18.10;;;;;;;4.46;100.00;101965.81;10506712;28;20043;-74
2023/01/31 18:03:56;;;;;;;38.20;16.23;;;;;;;4.36;100.00;101974.44;10491298;28;20463;-75
2023/01/31 18:09:01;;;;;;;32.63;19.55;;;;;;;4.32;100.00;101967.16;10481634;28;20040;-75
2023/01/31 18:14:02;;;;;;;35.85;17.55;;;;;;;4.07;100.00;101967.50;10465101;28;20753;-75
2023/01/31 18:19:05;;;;;;;32.80;19.30;;;;;;;3.97;100.00;101965.78;10487611;28;20097;-75
2023/01/31 18:24:07;;;;;;;26.52;17.38;;;;;;;4.06;100.00;101955.31;10507520;28;20093;-75
2023/01/31 18:29:08;;;;;;;41.47;21.02;;;;;;;4.28;100.00;101959.88;10480527;28;20068;-75
2023/01/31 18:34:09;;;;;;;38.58;19.17;;;;;;;4.38;100.00;101965.13;10485191;28;20127;-75
2023/01/31 18:39:09;;;;;;;35.30;22.55;;;;;;;4.61;100.00;101973.16;10484343;28;20033;-75
2023/01/31 18:44:10;;;;;;;33.05;21.30;;;;;;;4.70;100.00;101967.09;10485240;28;20056;-75
2023/01/31 18:49:11;;;;;;;34.38;19.60;;;;;;;4.83;100.00;101974.28;10482601;28;20044;-75
2023/01/31 18:54:13;;;;;;;31.42;20.13;;;;;;;4.93;100.00;101973.41;10464017;28;20052;-75
2023/01/31 18:59:13;;;;;;;33.95;19.80;;;;;;;4.99;100.00;101966.16;10493278;28;20071;-75
2023/01/31 19:04:14;;;;;;;34.88;20.10;;;;;;;4.82;100.00;101972.47;10478545;28;20551;-75
2023/01/31 19:09:15;;;;;;;34.40;17.38;;;;;;;4.70;100.00;101973.97;10502058;28;20077;-75
2023/01/31 19:14:15;;;;;;;34.53;21.08;;;;;;;4.64;100.00;101976.03;10489792;28;20048;-75
2023/01/31 19:19:16;;;;;;;38.65;20.00;;;;;;;4.69;100.00;101985.13;10496271;28;20507;-75
2023/01/31 19:24:16;;;;;;;37.33;20.55;;;;;;;4.60;100.00;101974.81;10532040;28;20032;-75
2023/01/31 19:29:17;;;;;;;29.80;18.98;;;;;;;4.39;100.00;101994.56;10503838;28;20062;-75
2023/01/31 19:34:17;;;;;;;26.55;18.15;;;;;;;4.30;100.00;101989.44;10488465;28;20384;-75
2023/01/31 19:39:18;;;;;;;33.65;19.40;;;;;;;4.14;100.00;101991.41;10489335;28;20044;-77
2023/01/31 19:44:19;;;;;;;30.05;17.75;;;;;;;4.00;100.00;101993.63;10505014;28;20051;-77
2023/01/31 19:49:21;;;;;;;26.67;15.70;;;;;;;4.02;100.00;102004.16;10486821;28;20114;-77
2023/01/31 19:54:21;;;;;;;34.93;17.03;;;;;;;4.31;100.00;102006.81;10474230;28;20118;-77
2023/01/31 19:59:22;;;;;;;30.13;18.05;;;;;;;4.44;100.00;102013.09;10512789;28;20282;-77
2023/01/31 20:04:22;;;;;;;36.33;18.85;;;;;;;4.64;100.00;102001.97;10498291;28;20105;-75
2023/01/31 20:09:23;;;;;;;27.92;17.65;;;;;;;4.68;100.00;101991.09;10487237;28;20037;-75
2023/01/31 20:14:23;;;;;;;38.88;19.10;;;;;;;4.69;100.00;101992.91;10490943;28;20381;-76
2023/01/31 20:19:24;;;;;;;40.10;21.10;;;;;;;4.73;100.00;101984.63;10493954;28;20064;-75
2023/01/31 20:24:24;;;;;;;36.78;19.48;;;;;;;4.82;100.00;101976.75;10483856;28;20508;-75
2023/01/31 20:29:25;;;;;;;38.95;20.77;;;;;;;4.70;100.00;101999.91;10473802;28;20068;-75
2023/01/31 20:34:26;;;;;;;40.20;17.98;;;;;;;4.69;100.00;101988.63;10486180;28;20037;-75
2023/01/31 20:39:26;;;;;;;34.55;21.98;;;;;;;4.69;100.00;101993.81;10470202;28;20496;-76
2023/01/31 20:44:27;;;;;;;36.17;18.30;;;;;;;4.72;100.00;101988.00;10486938;28;20226;-75
2023/01/31 20:49:27;;;;;;;28.98;16.98;;;;;;;4.73;100.00;101986.28;10487506;28;20059;-74
2023/01/31 20:54:29;;;;;;;31.00;18.00;;;;;;;4.67;100.00;101995.34;10502243;28;20048;-74
2023/01/31 20:59:30;;;;;;;;;;;;;;;4.66;100.00;101992.63;10481616;28;20404;-74
2023/01/31 21:04:30;;;;;;;30.00;16.67;;;;;;;4.62;100.00;101977.56;10476901;28;19924;-74
2023/01/31 21:09:31;;;;;;;28.48;17.60;;;;;;;4.52;100.00;101981.00;10468433;28;20127;-74
2023/01/31 21:14:31;;;;;;;33.78;20.25;;;;;;;4.40;100.00;101983.41;10483756;28;20559;-74
2023/01/31 21:19:32;;;;;;;33.63;17.70;;;;;;;4.32;100.00;101974.94;10482392;28;20124;-75
2023/01/31 21:24:32;;;;;;;33.95;18.55;;;;;;;4.24;100.00;101963.88;10484178;28;20124;-74
2023/01/31 21:29:33;;;;;;;31.52;17.50;;;;;;;4.32;100.00;101964.56;10480747;28;20489;-74
2023/01/31 21:34:33;;;;;;;39.28;18.35;;;;;;;4.29;100.00;101969.47;10483514;28;20047;-73
2023/01/31 21:39:34;;;;;;;30.50;17.77;;;;;;;4.27;100.00;101958.06;10484293;28;20119;-74
2023/01/31 21:44:34;;;;;;;36.15;18.85;;;;;;;4.07;100.00;101964.91;10485711;28;20041;-73
2023/01/31 21:49:35;;;;;;;36.75;20.45;;;;;;;3.85;100.00;101949.09;10483187;28;20116;-74
2023/01/31 21:54:36;;;;;;;30.23;17.63;;;;;;;3.71;100.00;101942.63;10484519;28;20043;-75
2023/01/31 21:59:37;;;;;;;37.55;20.42;;;;;;;3.68;100.00;101939.75;10481079;28;20133;-74
2023/01/31 22:04:38;;;;;;;35.30;22.58;;;;;;;3.47;100.00;101939.59;10483359;28;20040;-74
2023/01/31 22:09:39;;;;;;;35.20;20.35;;;;;;;3.41;100.00;101931.25;10485511;28;20068;-74
2023/01/31 22:14:39;;;;;;;38.40;23.42;;;;;;;3.36;100.00;101933.41;10482754;28;20036;-74
2023/01/31 22:19:40;;;;;;;37.13;20.35;;;;;;;3.44;100.00;101935.81;10480318;28;20041;-74
2023/01/31 22:24:40;;;;;;;34.90;20.95;;;;;;;3.34;100.00;101932.38;10483397;28;20064;-74
2023/01/31 22:29:41;;;;;;;33.85;20.95;;;;;;;3.28;100.00;101923.09;10480853;28;20076;-74
2023/01/31 22:34:41;;;;;;;39.85;21.42;;;;;;;3.56;100.00;101925.69;10481651;28;20086;-74
2023/01/31 22:39:42;;;;;;;41.92;24.83;;;;;;;3.71;100.00;101913.25;10482949;28;20077;-74
2023/01/31 22:44:42;;;;;;;42.75;22.27;;;;;;;3.79;100.00;101915.75;10464272;28;20041;-74
2023/01/31 22:49:43;;;;;;;39.28;21.10;;;;;;;3.82;100.00;101912.56;10480279;28;20055;-74
2023/01/31 22:54:43;;;;;;;35.85;20.67;;;;;;;3.95;100.00;101899.97;10481489;28;20055;-75
2023/01/31 22:59:44;;;;;;;39.22;22.20;;;;;;;3.96;100.00;101893.09;10466635;28;20127;-74
2023/01/31 23:04:44;;;;;;;37.40;20.70;;;;;;;4.05;100.00;101895.63;10480171;28;20044;-74